Time;durP1;ratioP1;P1;durP2;ratioP2;P2;SDS_P1;SDS_P2;PMS_P1;PMS_P2;Temp;Humidity;BMP_temperature;BMP_pressure;BME280_temperature;BME280_humidity;BME280_pressure;Samples;Min_cycle;Max_cycle;Signal;HPM_P1;HPM_P2
2022/06/02 00:02:12;;;;;;;28.88;18.77;;;;;;;-145.76;100.00;65039.31;4913808;28;20054;-71
2022/06/02 00:04:44;;;;;;;26.42;19.00;;;;;;;-145.76;100.00;65039.31;4914790;28;20030;-71
2022/06/02 00:07:19;;;;;;;30.08;19.45;;;;;;;-145.76;100.00;65039.31;4910711;28;20030;-71
2022/06/02 00:10:06;;;;;;;33.30;22.13;;;;;;;-145.76;100.00;65039.31;4927386;28;20788;-73
2022/06/02 00:12:55;;;;;;;41.60;22.85;;;;;;;-145.76;100.00;65039.31;4914782;28;20169;-71
2022/06/02 00:15:34;;;;;;;29.45;21.23;;;;;;;-145.76;100.00;65039.31;4907178;28;20044;-71
2022/06/02 00:18:01;;;;;;;36.05;22.23;;;;;;;-145.76;100.00;65039.31;4916359;28;20113;-71
2022/06/02 00:20:54;;;;;;;48.53;26.33;;;;;;;-145.76;100.00;65039.31;4900208;28;20052;-71
2022/06/02 00:23:31;;;;;;;39.13;24.88;;;;;;;-145.76;100.00;65039.31;4909472;28;21700;-71
2022/06/02 00:26:24;;;;;;;38.20;25.77;;;;;;;-145.76;100.00;65039.31;4916490;28;20458;-71
2022/06/02 00:29:00;;;;;;;38.55;24.95;;;;;;;-145.76;100.00;65039.31;4915972;28;20068;-71
2022/06/02 00:31:28;;;;;;;55.53;26.00;;;;;;;-145.76;100.00;65039.31;4904906;28;20600;-71
2022/06/02 00:34:17;;;;;;;35.13;23.30;;;;;;;-145.76;100.00;65039.31;4917050;28;20202;-72
2022/06/02 00:37:00;;;;;;;39.50;23.70;;;;;;;-145.76;100.00;65039.31;4916703;28;20042;-72
2022/06/02 00:39:27;;;;;;;38.10;23.55;;;;;;;-145.76;100.00;65039.31;4919571;28;20156;-72
2022/06/02 00:41:57;;;;;;;48.40;29.40;;;;;;;-145.76;100.00;65039.31;4909546;28;20046;-72
2022/06/02 00:44:40;;;;;;;49.78;29.17;;;;;;;-145.76;100.00;65039.31;4919135;28;20060;-72
2022/06/02 00:47:44;;;;;;;50.95;29.48;;;;;;;-145.76;100.00;65039.31;4915186;28;20482;-71
2022/06/02 00:50:19;;;;;;;50.28;28.95;;;;;;;-145.76;100.00;65039.31;4916000;28;20720;-72
2022/06/02 00:53:02;;;;;;;43.70;27.00;;;;;;;-145.76;100.00;65039.31;4915418;28;20034;-72
2022/06/02 00:58:51;;;;;;;44.80;27.40;;;;;;;-145.76;100.00;65039.31;4910434;28;20042;-72
2022/06/02 01:01:36;;;;;;;47.80;29.73;;;;;;;-145.76;100.00;65039.31;4916104;28;20539;-73
2022/06/02 01:04:05;;;;;;;59.80;34.70;;;;;;;-145.76;100.00;65039.31;4916315;28;20040;-72
2022/06/02 01:07:01;;;;;;;59.17;32.63;;;;;;;-145.76;100.00;65039.31;4915891;28;20054;-72
2022/06/02 01:09:30;;;;;;;48.70;30.13;;;;;;;-145.76;100.00;65039.31;4910617;28;20034;-74
2022/06/02 01:12:04;;;;;;;59.15;33.78;;;;;;;-145.76;100.00;65039.31;4918527;28;20042;-72
2022/06/02 01:14:50;;;;;;;57.28;32.45;;;;;;;-145.76;100.00;65039.31;4914161;28;21743;-72
2022/06/02 01:17:37;;;;;;;61.50;35.92;;;;;;;-145.76;100.00;65039.31;4921044;28;20041;-72
2022/06/02 01:20:30;;;;;;;66.45;36.17;;;;;;;-145.76;100.00;65039.31;4901103;28;22162;-72
2022/06/02 01:23:10;;;;;;;63.63;35.67;;;;;;;-145.76;100.00;65039.31;4931139;28;20054;-71
2022/06/02 01:26:16;;;;;;;70.18;35.97;;;;;;;-145.76;100.00;65039.31;4898830;28;22491;-72
2022/06/02 01:29:09;;;;;;;66.53;36.72;;;;;;;-145.76;100.00;65039.31;4887308;28;23699;-73
2022/06/02 01:31:49;;;;;;;67.15;36.00;;;;;;;-145.76;100.00;65039.31;4915159;28;20046;-73
2022/06/02 01:34:51;;;;;;;69.07;38.35;;;;;;;-145.76;100.00;65039.31;4901525;28;20038;-73
2022/06/02 01:37:43;;;;;;;66.53;35.90;;;;;;;-145.76;100.00;65039.31;4914765;28;20041;-73
2022/06/02 01:40:39;;;;;;;63.17;36.25;;;;;;;-145.76;100.00;65039.31;4899555;28;20129;-73
2022/06/02 01:43:23;;;;;;;67.13;36.47;;;;;;;-145.76;100.00;65039.31;4913103;28;20113;-73
2022/06/02 01:46:27;;;;;;;66.75;36.97;;;;;;;-145.76;100.00;65039.31;4919269;28;20123;-73
2022/06/02 01:49:17;;;;;;;73.03;37.45;;;;;;;-145.76;100.00;65039.31;4898619;28;22031;-74
2022/06/02 01:51:53;;;;;;;68.43;38.13;;;;;;;-145.76;100.00;65039.31;4922523;28;20049;-73
2022/06/02 01:54:44;;;;;;;64.82;37.65;;;;;;;-145.76;100.00;65039.31;4904441;28;20050;-73
2022/06/02 01:57:39;;;;;;;65.68;37.85;;;;;;;-145.76;100.00;65039.31;4898429;28;20088;-73
2022/06/02 02:00:14;;;;;;;64.88;36.83;;;;;;;-145.76;100.00;65039.31;4905761;28;20045;-74
2022/06/02 02:02:43;;;;;;;68.82;38.13;;;;;;;-145.76;100.00;65039.31;4914622;28;20041;-74
2022/06/02 02:05:36;;;;;;;64.43;36.75;;;;;;;-145.76;100.00;65039.31;4913987;28;20088;-74
2022/06/02 02:08:19;;;;;;;65.80;37.63;;;;;;;-145.76;100.00;65039.31;4917552;28;20350;-74
2022/06/02 02:11:03;;;;;;;68.83;37.57;;;;;;;-145.76;100.00;65039.31;4913314;28;20038;-74
2022/06/02 02:13:47;;;;;;;68.85;39.28;;;;;;;-145.76;100.00;65039.31;4918288;28;20293;-74
2022/06/02 02:16:18;;;;;;;63.03;37.38;;;;;;;-145.76;100.00;65039.31;4902226;28;20679;-74
2022/06/02 02:18:51;;;;;;;57.90;36.60;;;;;;;-145.76;100.00;65039.31;4919036;28;20437;-73
2022/06/02 02:21:21;;;;;;;68.85;37.85;;;;;;;-145.76;100.00;65039.31;4909097;28;20085;-74
2022/06/02 02:24:22;;;;;;;77.63;41.33;;;;;;;-145.76;100.00;65039.31;4912654;28;20046;-73
2022/06/02 02:27:12;;;;;;;66.82;39.08;;;;;;;-145.76;100.00;65039.31;4910662;28;20056;-73
2022/06/02 02:29:54;;;;;;;68.28;39.15;;;;;;;-145.76;100.00;65039.31;4916035;28;20034;-73
2022/06/02 02:32:41;;;;;;;67.80;37.92;;;;;;;-145.76;100.00;65039.31;4911860;28;20042;-73
2022/06/02 02:35:12;;;;;;;63.83;36.58;;;;;;;-145.76;100.00;65039.31;4914718;28;20786;-73
2022/06/02 02:37:46;;;;;;;66.70;38.17;;;;;;;-145.76;100.00;65039.31;4895192;28;20049;-73
2022/06/02 02:40:28;;;;;;;68.65;40.17;;;;;;;-145.76;100.00;65039.31;4917976;28;20033;-73
2022/06/02 02:43:04;;;;;;;66.45;39.00;;;;;;;-145.76;100.00;65039.31;4912563;28;20650;-73
2022/06/02 02:45:47;;;;;;;65.95;37.17;;;;;;;-145.76;100.00;65039.31;4913021;28;20131;-73
2022/06/02 02:48:33;;;;;;;57.75;34.60;;;;;;;-145.76;100.00;65039.31;4912883;28;20037;-74
2022/06/02 02:51:16;;;;;;;64.28;37.17;;;;;;;-145.76;100.00;65039.31;4916420;28;20050;-73
2022/06/02 02:53:47;;;;;;;70.27;38.63;;;;;;;-145.76;100.00;65039.31;4913057;28;20692;-73
2022/06/02 02:56:19;;;;;;;65.45;38.17;;;;;;;-145.76;100.00;65039.31;4928919;28;20409;-73
2022/06/02 02:58:59;;;;;;;63.65;38.83;;;;;;;-145.76;100.00;65039.31;4897150;28;20069;-75
2022/06/02 03:01:41;;;;;;;67.35;37.45;;;;;;;-145.76;100.00;65039.31;4912619;28;22446;-73
2022/06/02 03:04:38;;;;;;;64.35;37.67;;;;;;;-145.76;100.00;65039.31;4916625;28;20068;-73
2022/06/02 03:07:03;;;;;;;55.67;34.10;;;;;;;-145.76;100.00;65039.31;4898899;28;20094;-73
2022/06/02 03:09:52;;;;;;;60.78;36.03;;;;;;;-145.76;100.00;65039.31;4917018;28;20172;-73
2022/06/02 03:13:02;;;;;;;65.10;36.45;;;;;;;-145.76;100.00;65039.31;4888680;28;20054;-73
2022/06/02 03:15:37;;;;;;;58.13;34.05;;;;;;;-145.76;100.00;65039.31;4878269;28;20094;-73
2022/06/02 03:18:11;;;;;;;58.10;32.45;;;;;;;-145.76;100.00;65039.31;4900961;28;22683;-73
2022/06/02 03:20:37;;;;;;;55.90;34.10;;;;;;;-145.76;100.00;65039.31;4914198;28;20083;-73
2022/06/02 03:23:11;;;;;;;58.28;34.50;;;;;;;-145.76;100.00;65039.31;4912034;28;20061;-73
2022/06/02 03:25:47;;;;;;;61.13;34.60;;;;;;;-145.76;100.00;65039.31;4916164;28;20168;-73
2022/06/02 03:28:20;;;;;;;60.65;35.22;;;;;;;-145.76;100.00;65039.31;4896819;28;20049;-72
2022/06/02 03:31:06;;;;;;;63.28;36.40;;;;;;;-145.76;100.00;65039.31;4911812;28;20132;-72
2022/06/02 03:33:56;;;;;;;64.53;37.17;;;;;;;-145.76;100.00;65039.31;4901264;28;20072;-73
2022/06/02 03:36:48;;;;;;;69.72;37.55;;;;;;;-145.76;100.00;65039.31;4915699;28;21798;-72
2022/06/02 03:39:36;;;;;;;65.13;35.83;;;;;;;-145.76;100.00;65039.31;4896476;28;20389;-73
2022/06/02 03:42:12;;;;;;;61.58;34.83;;;;;;;-145.76;100.00;65039.31;4915380;28;20073;-72
2022/06/02 03:45:15;;;;;;;61.85;36.45;;;;;;;-145.76;100.00;65039.31;4900144;28;20547;-73
2022/06/02 03:48:18;;;;;;;61.50;36.95;;;;;;;-145.76;100.00;65039.31;4913704;28;20223;-72
2022/06/02 03:51:12;;;;;;;65.45;37.42;;;;;;;-145.76;100.00;65039.31;4917510;28;20062;-72
2022/06/02 03:53:51;;;;;;;65.05;38.88;;;;;;;-145.76;100.00;65039.31;4919081;28;20060;-72
2022/06/02 03:56:40;;;;;;;64.47;38.03;;;;;;;-145.76;100.00;65039.31;4891895;28;20062;-72
2022/06/02 03:59:41;;;;;;;64.53;39.58;;;;;;;-145.76;100.00;65039.31;4921546;28;22464;-72
2022/06/02 04:02:13;;;;;;;72.50;39.38;;;;;;;-145.76;100.00;65039.31;4904334;28;20049;-72
2022/06/02 04:04:55;;;;;;;69.40;39.30;;;;;;;-145.76;100.00;65039.31;4918380;28;20044;-72
2022/06/02 04:07:39;;;;;;;69.85;40.60;;;;;;;-145.76;100.00;65039.31;4907026;28;20057;-74
2022/06/02 04:10:13;;;;;;;70.80;41.08;;;;;;;-145.76;100.00;65039.31;4921904;28;20062;-72
2022/06/02 04:15:48;;;;;;;70.00;40.70;;;;;;;-145.76;100.00;65039.31;4920305;28;20180;-72
2022/06/02 04:18:58;;;;;;;67.90;40.22;;;;;;;-145.76;100.00;65039.31;4906264;28;20137;-72
2022/06/02 04:21:42;;;;;;;60.45;38.83;;;;;;;-145.76;100.00;65039.31;4900616;28;20054;-72
2022/06/02 04:24:14;;;;;;;;;;;;;;;-145.76;100.00;65039.31;4906673;28;20061;-72
2022/06/02 04:26:56;;;;;;;63.83;37.58;;;;;;;-145.76;100.00;65039.31;4904618;28;20337;-72
2022/06/02 04:29:38;;;;;;;58.17;37.05;;;;;;;-145.76;100.00;65039.31;4903196;28;20074;-72
2022/06/02 04:32:25;;;;;;;57.97;36.55;;;;;;;-145.76;100.00;65039.31;4917844;28;20496;-72
2022/06/02 04:35:30;;;;;;;58.90;37.38;;;;;;;-145.76;100.00;65039.31;4904340;28;20046;-72
2022/06/02 04:38:31;;;;;;;52.08;34.67;;;;;;;-145.76;100.00;65039.31;4901240;28;20034;-73
2022/06/02 04:41:21;;;;;;;60.60;36.20;;;;;;;-145.76;100.00;65039.31;4893107;28;20842;-72
2022/06/02 04:44:29;;;;;;;53.80;34.70;;;;;;;-145.76;100.00;65039.31;4920783;28;20042;-72
2022/06/02 04:47:27;;;;;;;48.28;33.60;;;;;;;-145.76;100.00;65039.31;4875767;28;20056;-72
2022/06/02 04:50:00;;;;;;;43.28;32.60;;;;;;;-145.76;100.00;65039.31;4913989;28;20061;-74
2022/06/02 04:52:48;;;;;;;43.60;29.67;;;;;;;-145.76;100.00;65039.31;4906297;28;20054;-72
2022/06/02 04:55:40;;;;;;;40.95;29.00;;;;;;;-145.76;100.00;65039.31;4916884;28;20046;-72
2022/06/02 04:58:19;;;;;;;33.55;26.90;;;;;;;-145.76;100.00;65039.31;4883253;28;21198;-73
2022/06/02 05:00:58;;;;;;;33.92;26.50;;;;;;;-145.76;100.00;65039.31;4921711;28;20048;-73
2022/06/02 05:03:42;;;;;;;32.03;25.35;;;;;;;-145.76;100.00;65039.31;4897691;28;20076;-73
2022/06/02 05:06:25;;;;;;;;;;;;;;;-145.76;100.00;65039.31;4930959;28;21005;-73
2022/06/02 05:09:03;;;;;;;35.28;22.92;;;;;;;-145.76;100.00;65039.31;4900997;28;22628;-73
2022/06/02 05:12:08;;;;;;;26.67;21.95;;;;;;;-145.76;100.00;65039.31;4912498;28;20042;-73
2022/06/02 05:14:50;;;;;;;24.50;19.60;;;;;;;-145.76;100.00;65039.31;4866009;28;20623;-72
2022/06/02 05:17:15;;;;;;;23.45;17.50;;;;;;;-145.76;100.00;65039.31;4918389;28;20040;-72
2022/06/02 05:20:05;;;;;;;14.82;13.02;;;;;;;-145.76;100.00;65039.31;4897868;28;20893;-72
2022/06/02 05:22:51;;;;;;;14.15;9.65;;;;;;;-145.76;100.00;65039.31;4921971;28;20054;-74
2022/06/02 05:25:29;;;;;;;15.27;8.43;;;;;;;-145.76;100.00;65039.31;4905210;28;20052;-74
2022/06/02 05:27:54;;;;;;;10.43;7.90;;;;;;;-145.76;100.00;65039.31;4919440;28;20121;-74
2022/06/02 05:30:22;;;;;;;12.18;7.30;;;;;;;-145.76;100.00;65039.31;4905809;28;21003;-74
2022/06/02 05:33:08;;;;;;;9.00;6.75;;;;;;;-145.76;100.00;65039.31;4922060;28;20042;-73
2022/06/02 05:36:01;;;;;;;9.57;6.57;;;;;;;-145.76;100.00;65039.31;4904475;28;20053;-72
2022/06/02 05:38:48;;;;;;;8.52;5.65;;;;;;;-145.76;100.00;65039.31;4908221;28;26660;-75
2022/06/02 05:41:30;;;;;;;8.30;5.07;;;;;;;-145.76;100.00;65039.31;4912321;28;20057;-73
2022/06/02 05:44:18;;;;;;;11.50;5.47;;;;;;;-145.76;100.00;65039.31;4922176;28;20038;-72
2022/06/02 05:47:07;;;;;;;8.30;4.88;;;;;;;-145.76;100.00;65039.31;4904736;28;20073;-72
2022/06/02 05:49:35;;;;;;;7.75;4.93;;;;;;;-145.76;100.00;65039.31;4902936;28;20236;-74
2022/06/02 05:52:15;;;;;;;7.22;4.80;;;;;;;-145.76;100.00;65039.31;4909683;28;20045;-73
2022/06/02 05:54:59;;;;;;;5.72;4.38;;;;;;;-145.76;100.00;65039.31;4920671;28;20210;-74
2022/06/02 05:57:37;;;;;;;6.05;4.10;;;;;;;-145.76;100.00;65039.31;4904298;28;20116;-73
2022/06/02 06:00:17;;;;;;;4.90;3.40;;;;;;;-145.76;100.00;65039.31;4894159;28;20033;-73
2022/06/02 06:03:18;;;;;;;5.82;3.05;;;;;;;-145.76;100.00;65039.31;4922331;28;20064;-73
2022/06/02 06:05:49;;;;;;;4.78;2.90;;;;;;;-145.76;100.00;65039.31;4930370;28;20050;-73
2022/06/02 06:08:26;;;;;;;4.03;2.72;;;;;;;-145.76;100.00;65039.31;4911762;28;20034;-72
2022/06/02 06:11:23;;;;;;;4.65;2.70;;;;;;;-145.76;100.00;65039.31;4917899;28;20038;-72
2022/06/02 06:14:01;;;;;;;4.90;2.88;;;;;;;-145.76;100.00;65039.31;4912126;28;20204;-73
2022/06/02 06:16:39;;;;;;;8.57;4.55;;;;;;;-145.76;100.00;65039.31;4915091;28;20077;-72
2022/06/02 06:19:26;;;;;;;5.15;2.33;;;;;;;-145.76;100.00;65039.31;4915025;28;20053;-72
2022/06/02 06:22:14;;;;;;;4.63;2.45;;;;;;;-145.76;100.00;65039.31;4918987;28;20046;-72
2022/06/02 06:25:02;;;;;;;9.75;3.30;;;;;;;-145.76;100.00;65039.31;4914908;28;20037;-73
2022/06/02 06:27:50;;;;;;;6.47;2.50;;;;;;;-145.76;100.00;65039.31;4919057;28;20602;-72
2022/06/02 06:30:23;;;;;;;9.40;2.40;;;;;;;-145.76;100.00;65039.31;4915178;28;22540;-73
2022/06/02 06:33:13;;;;;;;9.13;3.47;;;;;;;-145.76;100.00;65039.31;4907425;28;20562;-73
2022/06/02 06:36:08;;;;;;;10.00;4.40;;;;;;;-145.76;100.00;65039.31;4917762;28;20245;-73
2022/06/02 06:38:45;;;;;;;5.30;2.05;;;;;;;-145.76;100.00;65039.31;4912098;28;20064;-73
2022/06/02 06:41:13;;;;;;;4.32;1.75;;;;;;;-145.76;100.00;65039.31;4919241;28;20041;-73
2022/06/02 06:43:44;;;;;;;3.50;1.67;;;;;;;-145.76;100.00;65039.31;4902471;28;20060;-73
2022/06/02 06:46:15;;;;;;;4.45;1.98;;;;;;;-145.76;100.00;65039.31;4919872;28;20116;-73
2022/06/02 06:48:45;;;;;;;6.05;1.98;;;;;;;-145.76;100.00;65039.31;4900750;28;20052;-73
2022/06/02 06:51:33;;;;;;;5.07;1.58;;;;;;;-145.76;100.00;65039.31;4919490;28;20034;-73
2022/06/02 06:54:16;;;;;;;3.90;1.80;;;;;;;-145.76;100.00;65039.31;4906343;28;20065;-73
2022/06/02 06:56:59;;;;;;;5.30;2.05;;;;;;;-145.76;100.00;65039.31;4916732;28;20049;-73
2022/06/02 06:59:45;;;;;;;5.47;2.20;;;;;;;-145.76;100.00;65039.31;4884657;28;20045;-73
2022/06/02 07:02:17;;;;;;;7.85;1.40;;;;;;;-145.76;100.00;65039.31;4918346;28;20046;-73
2022/06/02 07:05:04;;;;;;;4.43;1.63;;;;;;;-145.76;100.00;65039.31;4899779;28;20074;-73
2022/06/02 07:08:01;;;;;;;5.07;1.40;;;;;;;-145.76;100.00;65039.31;4914528;28;20056;-73
2022/06/02 07:10:38;;;;;;;6.22;1.73;;;;;;;-145.76;100.00;65039.31;4903737;28;22017;-73
2022/06/02 07:13:10;;;;;;;6.75;1.80;;;;;;;-145.76;100.00;65039.31;4917494;28;20038;-73
2022/06/02 07:15:44;;;;;;;6.20;1.80;;;;;;;-145.76;100.00;65039.31;4908410;28;20123;-73
2022/06/02 07:18:43;;;;;;;10.23;3.80;;;;;;;-145.76;100.00;65039.31;4922104;28;20073;-72
2022/06/02 07:21:16;;;;;;;6.28;1.75;;;;;;;-145.76;100.00;65039.31;4917150;28;20050;-73
2022/06/02 07:24:03;;;;;;;4.10;1.40;;;;;;;-145.76;100.00;65039.31;4914308;28;20072;-72
2022/06/02 07:26:35;;;;;;;4.95;1.25;;;;;;;-145.76;100.00;65039.31;4895490;28;20080;-72
2022/06/02 07:29:10;;;;;;;6.93;1.70;;;;;;;-145.76;100.00;65039.31;4917362;28;20041;-71
2022/06/02 07:32:20;;;;;;;4.90;1.95;;;;;;;-145.76;100.00;65039.31;4913380;28;20300;-72
2022/06/02 07:35:02;;;;;;;5.97;2.40;;;;;;;-145.76;100.00;65039.31;4906614;28;20041;-72
2022/06/02 07:37:43;;;;;;;5.07;1.98;;;;;;;-145.76;100.00;65039.31;4904026;28;20042;-71
2022/06/02 07:40:28;;;;;;;3.78;1.92;;;;;;;-145.76;100.00;65039.31;4915958;28;20056;-72
2022/06/02 07:43:17;;;;;;;5.47;1.88;;;;;;;-145.76;100.00;65039.31;4900403;28;20104;-72
2022/06/02 07:46:06;;;;;;;9.38;2.90;;;;;;;-145.76;100.00;65039.31;4917128;28;20037;-72
2022/06/02 07:49:03;;;;;;;4.85;2.22;;;;;;;-145.76;100.00;65039.31;4914705;28;20034;-72
2022/06/02 07:51:37;;;;;;;7.35;2.50;;;;;;;-145.76;100.00;65039.31;4918813;28;20042;-72
2022/06/02 07:54:37;;;;;;;6.75;1.90;;;;;;;-145.76;100.00;65039.31;4913117;28;20482;-71
2022/06/02 07:57:11;;;;;;;5.97;1.95;;;;;;;-145.76;100.00;65039.31;4920915;28;23765;-71
2022/06/02 08:00:07;;;;;;;5.03;2.05;;;;;;;-145.76;100.00;65039.31;4884810;28;20045;-71
2022/06/02 08:03:10;;;;;;;13.05;5.47;;;;;;;-145.76;100.00;65039.31;4920666;28;20092;-71
2022/06/02 08:05:51;;;;;;;4.57;2.45;;;;;;;-145.76;100.00;65039.31;4921149;28;20050;-71
2022/06/02 08:08:29;;;;;;;6.22;2.83;;;;;;;-145.76;100.00;65039.31;4918438;28;20033;-71
2022/06/02 08:11:02;;;;;;;9.63;3.75;;;;;;;-145.76;100.00;65039.31;4904194;28;20505;-71
2022/06/02 08:13:43;;;;;;;8.27;3.28;;;;;;;-145.76;100.00;65039.31;4920998;28;20042;-71
2022/06/02 08:16:29;;;;;;;13.27;5.78;;;;;;;-145.76;100.00;65039.31;4901520;28;20039;-72
2022/06/02 08:19:17;;;;;;;5.20;2.28;;;;;;;-145.76;100.00;65039.31;4898633;28;24725;-72
2022/06/02 08:21:56;;;;;;;5.38;1.95;;;;;;;-145.76;100.00;65039.31;4914252;28;20056;-72
2022/06/02 08:24:37;;;;;;;7.32;2.78;;;;;;;-145.76;100.00;65039.31;4916127;28;20045;-72
2022/06/02 08:27:15;;;;;;;8.68;3.13;;;;;;;-145.76;100.00;65039.31;4911745;28;20042;-71
2022/06/02 08:29:47;;;;;;;4.10;1.80;;;;;;;-145.76;100.00;65039.31;4930452;28;20042;-72
2022/06/02 08:32:25;;;;;;;4.55;1.60;;;;;;;-145.76;100.00;65039.31;4919425;28;20053;-72
2022/06/02 08:35:06;;;;;;;7.20;2.63;;;;;;;-145.76;100.00;65039.31;4903586;28;20111;-72
2022/06/02 08:37:51;;;;;;;6.78;2.75;;;;;;;-145.76;100.00;65039.31;4916239;28;20072;-72
2022/06/02 08:40:41;;;;;;;6.32;2.15;;;;;;;-145.76;100.00;65039.31;4903400;28;20038;-72
2022/06/02 08:43:28;;;;;;;6.07;2.20;;;;;;;-145.76;100.00;65039.31;4917822;28;20054;-72
2022/06/02 08:46:05;;;;;;;5.43;1.77;;;;;;;-145.76;100.00;65039.31;4899363;28;20042;-72
2022/06/02 08:49:08;;;;;;;6.95;2.33;;;;;;;-145.76;100.00;65039.31;4916646;28;20062;-72
2022/06/02 08:52:11;;;;;;;8.15;3.00;;;;;;;-145.76;100.00;65039.31;4905560;28;20137;-72
2022/06/02 08:54:54;;;;;;;7.93;1.73;;;;;;;-145.76;100.00;65039.31;4921006;28;20486;-72
2022/06/02 08:58:06;;;;;;;5.65;1.88;;;;;;;-145.76;100.00;65039.31;4910971;28;20436;-72
2022/06/02 09:01:09;;;;;;;4.15;1.60;;;;;;;-145.76;100.00;65039.31;4884805;28;20686;-72
2022/06/02 09:04:16;;;;;;;8.32;3.70;;;;;;;-145.76;100.00;65039.31;4919521;28;20046;-72
2022/06/02 09:06:50;;;;;;;6.43;2.03;;;;;;;-145.76;100.00;65039.31;4907997;28;20046;-72
2022/06/02 09:09:47;;;;;;;8.60;2.30;;;;;;;-145.76;100.00;65039.31;4919809;28;20050;-71
2022/06/02 09:12:38;;;;;;;4.57;1.33;;;;;;;-145.76;100.00;65039.31;4906433;28;20107;-71
2022/06/02 09:15:34;;;;;;;7.80;3.17;;;;;;;-145.76;100.00;65039.31;4921383;28;20025;-71
2022/06/02 09:18:16;;;;;;;4.25;1.40;;;;;;;-145.76;100.00;65039.31;4906563;28;20041;-71
2022/06/02 09:20:51;;;;;;;6.22;1.77;;;;;;;-145.76;100.00;65039.31;4916683;28;20133;-71
2022/06/02 09:23:16;;;;;;;5.05;1.30;;;;;;;-145.76;100.00;65039.31;4908120;28;20050;-72
2022/06/02 09:26:33;;;;;;;8.63;1.95;;;;;;;-145.76;100.00;65039.31;4922202;28;21044;-72
2022/06/02 09:29:42;;;;;;;5.38;1.60;;;;;;;-145.76;100.00;65039.31;4901188;28;20045;-71
2022/06/02 09:32:31;;;;;;;8.85;1.75;;;;;;;-145.76;100.00;65039.31;4884451;28;20370;-71
2022/06/02 09:35:02;;;;;;;3.80;1.25;;;;;;;-145.76;100.00;65039.31;4901133;28;20214;-71
2022/06/02 09:38:01;;;;;;;5.45;1.67;;;;;;;-145.76;100.00;65039.31;4921268;28;20041;-72
2022/06/02 09:40:38;;;;;;;4.10;1.50;;;;;;;-145.76;100.00;65039.31;4906061;28;20208;-72
2022/06/02 09:43:18;;;;;;;8.38;2.67;;;;;;;-145.76;100.00;65039.31;4920983;28;20050;-72
2022/06/02 09:46:12;;;;;;;6.28;1.58;;;;;;;-145.76;100.00;65039.31;4906832;28;20038;-72
2022/06/02 09:48:47;;;;;;;6.28;2.17;;;;;;;-145.76;100.00;65039.31;4919135;28;20132;-72
2022/06/02 09:51:38;;;;;;;4.50;1.90;;;;;;;-145.76;100.00;65039.31;4905399;28;20097;-72
2022/06/02 09:54:46;;;;;;;5.57;1.70;;;;;;;-145.76;100.00;65039.31;4921648;28;20061;-72
2022/06/02 10:00:41;;;;;;;7.03;1.60;;;;;;;-145.76;100.00;65039.31;4921824;28;20136;-71
2022/06/02 10:03:25;;;;;;;3.95;1.13;;;;;;;-145.76;100.00;65039.31;4906730;28;21545;-71
2022/06/02 10:06:03;;;;;;;4.43;1.60;;;;;;;-145.76;100.00;65039.31;4921095;28;20038;-71
2022/06/02 10:08:40;;;;;;;4.78;1.80;;;;;;;-145.76;100.00;65039.31;4900674;28;20105;-72
2022/06/02 10:11:18;;;;;;;5.00;1.30;;;;;;;-145.76;100.00;65039.31;4915964;28;20069;-71
2022/06/02 10:13:59;;;;;;;2.33;1.15;;;;;;;-145.76;100.00;65039.31;4900792;28;20038;-72
2022/06/02 10:16:32;;;;;;;4.80;1.13;;;;;;;-145.76;100.00;65039.31;4922068;28;20149;-73
2022/06/02 10:19:35;;;;;;;3.70;1.65;;;;;;;-145.76;100.00;65039.31;4904640;28;20196;-72
2022/06/02 10:22:23;;;;;;;4.35;1.38;;;;;;;-145.76;100.00;65039.31;4919367;28;20052;-72
2022/06/02 10:25:17;;;;;;;6.55;2.10;;;;;;;-145.76;100.00;65039.31;4901527;28;20704;-72
2022/06/02 10:27:54;;;;;;;7.00;4.13;;;;;;;-145.76;100.00;65039.31;4919954;28;20053;-71
2022/06/02 10:30:34;;;;;;;8.10;3.75;;;;;;;-145.76;100.00;65039.31;4903830;28;23655;-71
2022/06/02 10:33:08;;;;;;;10.30;5.97;;;;;;;-145.76;100.00;65039.31;4935885;28;20049;-71
2022/06/02 10:35:52;;;;;;;6.93;2.00;;;;;;;-145.76;100.00;65039.31;4905008;28;20128;-71
2022/06/02 10:38:26;;;;;;;4.18;1.88;;;;;;;-145.76;100.00;65039.31;4918567;28;20665;-72
2022/06/02 10:41:17;;;;;;;2.90;1.63;;;;;;;-145.76;100.00;65039.31;4904852;28;21389;-73
2022/06/02 10:44:01;;;;;;;3.63;1.38;;;;;;;-145.76;100.00;65039.31;4914886;28;20236;-73
2022/06/02 10:46:42;;;;;;;3.15;1.30;;;;;;;-145.76;100.00;65039.31;4903757;28;20046;-72
2022/06/02 10:49:26;;;;;;;3.45;1.67;;;;;;;-145.76;100.00;65039.31;4917117;28;20042;-72
2022/06/02 10:52:13;;;;;;;6.60;2.20;;;;;;;-145.76;100.00;65039.31;4900901;28;20030;-72
2022/06/02 10:54:50;;;;;;;4.30;1.38;;;;;;;-145.76;100.00;65039.31;4917147;28;20038;-72
2022/06/02 10:57:41;;;;;;;4.97;1.45;;;;;;;-145.76;100.00;65039.31;4902979;28;20152;-72
2022/06/02 11:00:36;;;;;;;8.60;2.30;;;;;;;-145.76;100.00;65039.31;4919449;28;20049;-72
2022/06/02 11:03:20;;;;;;;4.63;1.83;;;;;;;-145.76;100.00;65039.31;4899807;28;20138;-72
2022/06/02 11:06:11;;;;;;;4.43;1.27;;;;;;;-145.76;100.00;65039.31;4915874;28;21222;-72
2022/06/02 11:09:17;;;;;;;3.97;1.33;;;;;;;-145.76;100.00;65039.31;4903011;28;20050;-72
2022/06/02 11:12:13;;;;;;;3.00;1.17;;;;;;;-145.76;100.00;65039.31;4918531;28;20052;-72
2022/06/02 11:15:15;;;;;;;4.43;1.25;;;;;;;-145.76;100.00;65039.31;4903714;28;21255;-72
2022/06/02 11:17:56;;;;;;;2.83;1.17;;;;;;;-145.76;100.00;65039.31;4915266;28;20042;-72
2022/06/02 11:20:54;;;;;;;5.00;1.52;;;;;;;-145.76;100.00;65039.31;4905239;28;20061;-72
2022/06/02 11:23:30;;;;;;;3.40;1.50;;;;;;;-145.76;100.00;65039.31;4916578;28;20073;-72
2022/06/02 11:26:15;;;;;;;6.00;1.80;;;;;;;-145.76;100.00;65039.31;4900326;28;20048;-72
2022/06/02 11:28:59;;;;;;;3.28;1.17;;;;;;;-145.76;100.00;65039.31;4920428;28;20046;-72
2022/06/02 11:31:42;;;;;;;2.53;1.20;;;;;;;-145.76;100.00;65039.31;4901337;28;20046;-73
2022/06/02 11:34:14;;;;;;;7.38;1.48;;;;;;;-145.76;100.00;65039.31;4919496;28;21913;-72
2022/06/02 11:36:58;;;;;;;6.47;1.73;;;;;;;-145.76;100.00;65039.31;4904470;28;20132;-72
2022/06/02 11:39:53;;;;;;;3.15;1.30;;;;;;;-145.76;100.00;65039.31;4920084;28;20053;-72
2022/06/02 11:42:27;;;;;;;5.97;1.60;;;;;;;-145.76;100.00;65039.31;4902721;28;20050;-71
2022/06/02 11:45:30;;;;;;;4.75;2.03;;;;;;;-145.76;100.00;65039.31;4918546;28;20592;-72
2022/06/02 11:48:14;;;;;;;3.53;1.33;;;;;;;-145.76;100.00;65039.31;4887265;28;20061;-72
2022/06/02 11:50:58;;;;;;;3.85;1.55;;;;;;;-145.76;100.00;65039.31;4918640;28;20038;-72
2022/06/02 11:53:39;;;;;;;6.53;1.70;;;;;;;-145.76;100.00;65039.31;4910420;28;20057;-72
2022/06/02 11:56:11;;;;;;;3.75;1.25;;;;;;;-145.76;100.00;65039.31;4897797;28;20117;-72
2022/06/02 11:58:58;;;;;;;3.67;1.17;;;;;;;-145.76;100.00;65039.31;4899470;28;20034;-72
2022/06/02 12:01:35;;;;;;;4.93;1.00;;;;;;;-145.76;100.00;65039.31;4915316;28;20247;-72
2022/06/02 12:04:19;;;;;;;5.72;1.30;;;;;;;-145.76;100.00;65039.31;4913031;28;20046;-72
2022/06/02 12:06:52;;;;;;;2.00;1.02;;;;;;;-145.76;100.00;65039.31;4916956;28;20076;-72
2022/06/02 12:09:48;;;;;;;5.55;1.35;;;;;;;-145.76;100.00;65039.31;4912673;28;22609;-72
2022/06/02 12:12:16;;;;;;;3.20;1.30;;;;;;;-145.76;100.00;65039.31;4917547;28;20108;-73
2022/06/02 12:14:59;;;;;;;7.60;1.70;;;;;;;-145.76;100.00;65039.31;4921571;28;20034;-72
2022/06/02 12:18:02;;;;;;;3.88;1.40;;;;;;;-145.76;100.00;65039.31;4907038;28;20046;-72
2022/06/02 12:21:04;;;;;;;7.40;4.78;;;;;;;-145.76;100.00;65039.31;4917198;28;21192;-72
2022/06/02 12:23:33;;;;;;;4.97;1.63;;;;;;;-145.76;100.00;65039.31;4922607;28;20047;-72
2022/06/02 12:26:23;;;;;;;2.72;1.40;;;;;;;-145.76;100.00;65039.31;4922862;28;20042;-72
2022/06/02 12:29:11;;;;;;;4.13;1.75;;;;;;;-145.76;100.00;65039.31;4924196;28;20676;-72